Stations météo

réclame
Mon MeteoGroup
Chateau Chinon, France (7270): Température de l'air & dewpoint: 14.11.2017 12:00:00 - 20.11.2017 12:00:00 (CET)Chateau Chinon, France (7270): Vitesse du vent & gusts: 14.11.2017 12:00:00 - 20.11.2017 12:00:00 (CET)Chateau Chinon, France (7270): Direction du vent: 14.11.2017 12:00:00 - 20.11.2017 12:00:00 (CET)Chateau Chinon, France (7270): Quantités de précipitations: 14.11.2017 12:00:00 - 20.11.2017 12:00:00 (CET)
Date & Time tt [°C] td [°C] ff [km/h] ff [knt] fx [km/h] fx [knt] dd rr [mm]
20.11.2017 12:00:00 2,2 1,9 4 2 8 4 W 0,0
20.11.2017 11:00:00 1,9 1,9 2 1 13 7 WSW 0,0
20.11.2017 10:00:00 1,5 1,5 4 2 15 8 SW 0,0
20.11.2017 09:00:00 1,2 1,2 2 1 15 8 SSW 0,0
20.11.2017 08:00:00 1,3 1,0 5 3 11 6 SSW 0,0
20.11.2017 07:00:00 1,3 1,2 2 1 8 4 SW -
20.11.2017 06:00:00 0,7 0,7 2 1 8 4 S 0,0
20.11.2017 05:00:00 0,8 0,5 4 2 8 4 SSW 0,0
20.11.2017 04:00:00 0,9 0,9 0 0 8 4 N 0,0
20.11.2017 03:00:00 0,3 0,2 4 2 5 3 W 0,0
20.11.2017 02:00:00 0,7 0,4 0 0 4 2 N 0,0
20.11.2017 01:00:00 1,6 1,3 0 0 5 3 N -
20.11.2017 00:00:00 2,4 2,3 4 2 9 5 SE 0,0
19.11.2017 23:00:00 2,5 2,2 0 0 4 2 N 0,0
19.11.2017 22:00:00 2,8 2,7 0 0 4 2 N 0,0
19.11.2017 21:00:00 3,0 2,7 0 0 5 3 N 0,0
19.11.2017 20:00:00 2,8 2,7 0 0 8 4 N 0,0
19.11.2017 19:00:00 2,7 2,4 2 1 8 4 ESE -
19.11.2017 18:00:00 2,9 2,8 0 0 5 3 N 0,0
19.11.2017 17:00:00 3,4 3,3 2 1 8 4 WNW 0,0
19.11.2017 16:00:00 3,6 3,6 2 1 8 4 W 0,2
19.11.2017 15:00:00 3,5 3,2 0 0 8 4 N 0,0
19.11.2017 14:00:00 3,8 3,8 2 1 8 4 W 0,0
19.11.2017 13:00:00 3,4 3,1 0 0 8 4 N -
19.11.2017 12:00:00 3,3 3,2 2 1 8 4 W 0,0
19.11.2017 11:00:00 2,8 2,5 2 1 9 5 W 0,0
19.11.2017 10:00:00 2,5 2,2 2 1 9 5 W 0,2
19.11.2017 09:00:00 2,3 2,2 4 2 15 8 WSW 0,8
19.11.2017 08:00:00 2,3 2,2 2 1 16 9 W 1,0
19.11.2017 07:00:00 2,4 2,3 4 2 22 12 WNW -
19.11.2017 06:00:00 2,5 2,4 4 2 21 11 WNW 0,0
19.11.2017 05:00:00 2,6 2,0 4 2 18 10 WNW 0,0
19.11.2017 04:00:00 2,6 2,0 2 1 11 6 WNW 0,0
19.11.2017 03:00:00 2,9 1,9 2 1 9 5 W 0,0
19.11.2017 02:00:00 2,7 1,1 2 1 11 6 WNW 0,0
19.11.2017 01:00:00 2,5 0,4 2 1 11 6 W -
19.11.2017 00:00:00 2,5 -0,1 2 1 13 7 W 0,0
18.11.2017 23:00:00 2,5 -0,4 2 1 15 8 W 0,0
18.11.2017 22:00:00 2,6 -0,3 0 0 8 4 N 0,0
18.11.2017 21:00:00 3,0 -0,3 0 0 5 3 N 0,0
18.11.2017 20:00:00 2,8 -1,0 2 1 8 4 SSW 0,0
18.11.2017 19:00:00 2,5 -0,9 2 1 5 3 SE -
18.11.2017 18:00:00 2,8 -0,7 0 0 4 2 N 0,0
18.11.2017 17:00:00 3,2 -0,6 2 1 13 7 NW 0,0
18.11.2017 16:00:00 4,2 -0,4 2 1 11 6 N 0,0
18.11.2017 15:00:00 4,4 0,7 4 2 16 9 WNW 0,0
18.11.2017 14:00:00 4,5 1,7 4 2 11 6 NW 0,0
18.11.2017 13:00:00 3,8 1,7 4 2 11 6 NW -
18.11.2017 12:00:00 3,3 3,2 4 2 8 4 W 0,0
18.11.2017 11:00:00 2,5 2,2 0 0 5 3 N 0,0
18.11.2017 10:00:00 1,8 1,5 0 0 5 3 N 0,0
18.11.2017 09:00:00 1,3 1,0 4 2 8 4 SE 0,0
18.11.2017 08:00:00 1,1 1,0 2 1 5 3 ESE 0,0
18.11.2017 07:00:00 1,4 1,1 2 1 9 5 ENE -
18.11.2017 06:00:00 2,2 2,1 2 1 13 7 E 0,0
18.11.2017 05:00:00 2,5 2,2 4 2 15 8 NE 0,0
18.11.2017 04:00:00 2,0 1,7 4 2 13 7 NE 0,0
18.11.2017 03:00:00 3,2 3,1 5 3 13 7 ENE 0,0
18.11.2017 02:00:00 3,3 3,2 4 2 13 7 ENE 0,0
18.11.2017 01:00:00 2,3 2,2 5 3 13 7 ENE -
18.11.2017 00:00:00 2,8 2,7 5 3 21 11 ENE 0,0
17.11.2017 23:00:00 2,5 2,2 5 3 16 9 ENE 0,0
17.11.2017 22:00:00 2,8 2,5 8 4 21 11 ENE 0,0
17.11.2017 21:00:00 3,2 2,9 8 4 21 11 ENE 0,0
17.11.2017 20:00:00 3,6 3,2 8 4 16 9 ENE 0,0
17.11.2017 19:00:00 3,9 3,2 5 3 18 10 ENE -
17.11.2017 18:00:00 4,6 3,3 8 4 16 9 NE 0,0
17.11.2017 17:00:00 6,4 3,5 4 2 13 7 NE 0,0
17.11.2017 16:00:00 8,8 4,6 5 3 16 9 NE 0,0
17.11.2017 15:00:00 8,7 4,5 4 2 15 8 N 0,0
17.11.2017 14:00:00 7,8 4,6 2 1 8 4 WNW 0,0
17.11.2017 13:00:00 8,1 3,5 4 2 15 8 WNW -
17.11.2017 12:00:00 9,2 3,0 5 3 15 8 NE 0,0
17.11.2017 11:00:00 8,2 1,8 5 3 11 6 NE 0,0
17.11.2017 10:00:00 5,1 1,0 4 2 16 9 ENE 0,0
17.11.2017 09:00:00 3,1 0,0 2 1 11 6 ENE 0,0
17.11.2017 08:00:00 1,4 0,2 2 1 8 4 ENE 0,0
17.11.2017 07:00:00 2,1 0,0 4 2 8 4 NNE -
17.11.2017 06:00:00 3,0 0,2 2 1 5 3 W 0,0
17.11.2017 05:00:00 3,5 0,2 4 2 11 6 ESE 0,0
17.11.2017 04:00:00 3,2 0,4 4 2 11 6 E 0,0
17.11.2017 03:00:00 2,5 0,9 4 2 9 5 E 0,0
17.11.2017 02:00:00 1,4 0,1 2 1 9 5 N 0,0
17.11.2017 01:00:00 2,5 -0,3 2 1 8 4 W -
17.11.2017 00:00:00 3,3 0,3 0 0 4 2 N 0,0
16.11.2017 23:00:00 2,6 0,5 4 2 8 4 E 0,0
16.11.2017 22:00:00 2,8 0,5 2 1 9 5 ESE 0,0
16.11.2017 21:00:00 2,4 0,6 2 1 4 2 ESE 0,0
16.11.2017 20:00:00 2,5 0,7 0 0 9 5 N 0,0
16.11.2017 19:00:00 2,6 1,6 5 3 11 6 ESE -
16.11.2017 18:00:00 0,9 0,0 4 2 5 3 ENE 0,0
16.11.2017 17:00:00 1,8 1,1 2 1 8 4 E 0,0
16.11.2017 16:00:00 1,5 0,9 4 2 8 4 NE 0,0
16.11.2017 15:00:00 2,3 0,5 4 2 9 5 W 0,0
16.11.2017 14:00:00 4,2 1,4 4 2 11 6 N 0,0
16.11.2017 13:00:00 6,2 1,5 0 0 8 4 N -
16.11.2017 12:00:00 4,1 -0,3 0 0 8 4 N 0,0
16.11.2017 11:00:00 3,7 -1,1 0 0 8 4 N 0,0
16.11.2017 10:00:00 4,7 -1,1 0 0 13 7 N 0,0
16.11.2017 09:00:00 2,6 -2,7 4 2 9 5 ESE 0,0
16.11.2017 08:00:00 1,0 -2,2 4 2 5 3 E 0,0
16.11.2017 07:00:00 0,5 -2,1 4 2 9 5 E -
16.11.2017 06:00:00 0,4 -2,0 4 2 9 5 E 0,0
16.11.2017 05:00:00 0,7 -1,9 5 3 9 5 E 0,0
16.11.2017 04:00:00 1,6 -2,0 5 3 15 8 E 0,0
16.11.2017 03:00:00 1,2 -1,4 5 3 13 7 E 0,0
16.11.2017 02:00:00 0,9 -0,6 5 3 13 7 E 0,0
16.11.2017 01:00:00 0,8 -0,7 4 2 13 7 E -
16.11.2017 00:00:00 0,9 -0,4 0 0 13 7 N 0,0
15.11.2017 23:00:00 0,9 -0,9 4 2 8 4 E 0,0
15.11.2017 22:00:00 1,3 -0,8 0 0 5 3 N 0,0
15.11.2017 21:00:00 1,7 -0,6 0 0 9 5 N 0,0
15.11.2017 20:00:00 1,6 0,0 4 2 15 8 E 0,0
15.11.2017 19:00:00 2,7 -0,2 4 2 15 8 NE -
15.11.2017 18:00:00 3,2 -0,6 4 2 11 6 NE 0,0
15.11.2017 17:00:00 4,8 -0,8 4 2 16 9 ENE 0,0
15.11.2017 16:00:00 7,0 -1,7 4 2 15 8 NNE 0,0
15.11.2017 15:00:00 8,1 -2,0 5 3 13 7 NE 0,0
15.11.2017 14:00:00 8,1 -2,8 5 3 22 12 NE 0,0
15.11.2017 13:00:00 7,8 -1,2 5 3 16 9 NNE -
15.11.2017 12:00:00 6,3 -0,7 5 3 22 12 ENE 0,0
15.11.2017 11:00:00 6,2 -2,2 5 3 16 9 NE 0,0
15.11.2017 10:00:00 4,1 -2,5 8 4 28 15 ENE 0,0
15.11.2017 09:00:00 2,9 -2,6 8 4 18 10 ENE 0,0
15.11.2017 08:00:00 1,3 -2,3 9 5 22 12 ENE 0,0
15.11.2017 07:00:00 1,2 -2,0 8 4 24 13 ENE -
15.11.2017 06:00:00 -0,3 -2,4 5 3 13 7 ENE 0,0
15.11.2017 05:00:00 -0,1 -2,2 8 4 18 10 ENE 0,0
15.11.2017 04:00:00 -0,3 -1,9 8 4 15 8 NE 0,0
15.11.2017 03:00:00 -0,2 -1,0 5 3 13 7 ENE 0,0
15.11.2017 02:00:00 -0,4 -1,2 4 2 9 5 ENE 0,0
15.11.2017 01:00:00 -0,2 -1,0 5 3 13 7 ENE -
15.11.2017 00:00:00 -0,2 -1,2 0 0 8 4 N 0,0
14.11.2017 23:00:00 -0,3 -0,9 4 2 9 5 ENE 0,0
14.11.2017 22:00:00 -0,2 -0,5 4 2 11 6 ENE 0,0
14.11.2017 21:00:00 -0,1 -0,7 4 2 13 7 ENE 0,0
14.11.2017 20:00:00 0,4 -0,3 4 2 15 8 ENE 0,0
14.11.2017 19:00:00 1,1 0,2 4 2 15 8 ENE -
14.11.2017 18:00:00 1,8 0,6 5 3 15 8 NE 0,0
14.11.2017 17:00:00 3,0 0,7 4 2 15 8 NNE 0,0
14.11.2017 16:00:00 4,7 0,5 4 2 22 12 NNE 0,0
14.11.2017 15:00:00 5,8 0,3 8 4 16 9 NNE 0,0
14.11.2017 14:00:00 6,2 0,9 5 3 22 12 NNE 0,0
14.11.2017 13:00:00 6,0 1,5 5 3 22 12 NNE -
14.11.2017 12:00:00 5,5 1,8 5 3 22 12 NE 0,0

tt = Température de l'air
td = dewpoint
ff = Vitesse du vent
fx = gusts
dd = Direction du vent
rr = Quantités de précipitations

stations d'obs. à proximité